Terminal Aerodrome Forecast
Issued by NWS Upton, NY

Home | Current Version | Previous Version | Text Only | Print | Product List | Glossary On
Versions: 1 2 3 4 5 6 7 8 9 10 11 12 13 14 15 16 17 18 19 20 21 22 23 24 25 26 27 28
000
FTUS41 KOKX 230200 AAA
TAFLGA
TAF AMD
KLGA 230246Z 2303/2324 08007KT P6SM OVC050
     FM230900 05009KT P6SM BKN050 OVC080
     FM232000 09008KT P6SM SCT050 BKN100=

USA.gov is the U.S. government's official web portal to all federal, state and local government web resources and services.